Terminal Aerodrome Forecast
Issued by NWS

Home | Current Version | Previous Version | Text Only | Print | Product List | Glossary On
Versions: 1 2 3 4 5 6 7 8 9 10 11 12 13
000
FTUS45 KFGZ 070526
TAFSEZ
TAF
KSEZ 070526Z 0706/0806 VRB04KT P6SM FEW150
     FM071700 22008KT P6SM SCT120 PROB30 0718/0724 6SM -TSRA
      BKN080CB
     FM080300 04008KT P6SM FEW090 SCT140=

USA.gov is the U.S. government's official web portal to all federal, state and local government web resources and services.